Time;durP1;ratioP1;P1;durP2;ratioP2;P2;SDS_P1;SDS_P2;PMS_P1;PMS_P2;Temp;Humidity;BMP_temperature;BMP_pressure;BME280_temperature;BME280_humidity;BME280_pressure;Samples;Min_cycle;Max_cycle;Signal;HPM_P1;HPM_P2
2022/12/25 00:02:22;;;;;;;21.48;9.27;;;;;;;10.04;100.00;100541.44;5075768;28;20583;-75
2022/12/25 00:04:49;;;;;;;17.55;8.82;;;;;;;10.01;100.00;100533.47;5076586;28;20201;-77
2022/12/25 00:07:15;;;;;;;24.20;9.77;;;;;;;10.02;100.00;100533.44;5076355;28;20200;-77
2022/12/25 00:09:42;;;;;;;14.98;9.18;;;;;;;10.05;100.00;100528.88;5079461;28;20670;-76
2022/12/25 00:12:09;;;;;;;22.60;8.65;;;;;;;9.99;100.00;100524.59;5086590;28;20228;-76
2022/12/25 00:14:35;;;;;;;20.63;9.63;;;;;;;9.96;100.00;100524.72;5085669;28;20616;-75
2022/12/25 00:17:03;;;;;;;13.23;8.60;;;;;;;9.95;100.00;100515.78;5087468;28;20196;-76
2022/12/25 00:19:30;;;;;;;16.05;9.25;;;;;;;9.94;100.00;100516.72;5093006;28;20209;-77
2022/12/25 00:21:56;;;;;;;22.15;8.85;;;;;;;9.96;100.00;100506.75;5095545;28;20200;-78
2022/12/25 00:24:23;;;;;;;25.17;10.32;;;;;;;9.94;100.00;100499.69;5098607;28;20228;-79
2022/12/25 00:26:49;;;;;;;14.55;8.27;;;;;;;9.84;100.00;100499.22;5097755;28;20211;-78
2022/12/25 00:29:16;;;;;;;19.38;8.15;;;;;;;9.86;100.00;100504.50;5097241;28;20249;-78
2022/12/25 00:31:42;;;;;;;23.13;9.00;;;;;;;9.76;100.00;100498.63;5090146;28;20227;-78
2022/12/25 00:34:10;;;;;;;17.85;9.20;;;;;;;9.78;100.00;100500.31;5090413;28;20736;-77
2022/12/25 00:36:36;;;;;;;18.23;9.65;;;;;;;9.81;100.00;100497.53;5096186;28;20206;-77
2022/12/25 00:39:03;;;;;;;18.23;9.32;;;;;;;9.75;100.00;100499.59;5095768;28;20263;-78
2022/12/25 00:44:14;;;;;;;18.38;8.95;;;;;;;9.79;100.00;100501.19;5096138;28;20231;-77
2022/12/25 00:46:41;;;;;;;18.88;8.75;;;;;;;9.74;100.00;100514.81;5091086;28;20200;-74
2022/12/25 00:49:10;;;;;;;19.75;9.52;;;;;;;9.73;100.00;100515.78;5079023;28;20567;-76
2022/12/25 00:51:36;;;;;;;19.05;9.38;;;;;;;9.71;100.00;100525.72;5079489;28;20596;-76
2022/12/25 00:54:03;;;;;;;21.02;9.40;;;;;;;9.71;100.00;100531.09;5076541;28;20224;-76
2022/12/25 00:56:29;;;;;;;16.70;8.88;;;;;;;9.67;100.00;100523.22;5076714;28;20283;-77
2022/12/25 00:58:56;;;;;;;15.63;9.15;;;;;;;9.70;100.00;100523.06;5075738;28;20207;-76
2022/12/25 01:01:22;;;;;;;17.70;9.35;;;;;;;9.52;100.00;100514.81;5075653;28;20197;-78
2022/12/25 01:03:49;;;;;;;15.63;8.57;;;;;;;9.49;100.00;100503.31;5075886;28;20199;-77
2022/12/25 01:06:17;;;;;;;21.67;9.85;;;;;;;9.46;100.00;100492.69;5075711;28;20200;-76
2022/12/25 01:10:21;;;;;;;26.58;19.13;;;;;;;9.40;100.00;100501.84;5075225;28;20208;-77
2022/12/25 01:11:30;;;;;;;20.98;8.98;;;;;;;9.40;100.00;100508.09;5074449;28;20278;-77
2022/12/25 01:13:57;;;;;;;17.40;9.90;;;;;;;9.29;100.00;100502.25;5074952;28;20216;-76
2022/12/25 01:16:23;;;;;;;17.55;9.98;;;;;;;9.27;100.00;100506.84;5077250;28;20230;-76
2022/12/25 01:18:50;;;;;;;16.20;10.65;;;;;;;9.19;100.00;100506.25;5075153;28;20200;-76
2022/12/25 01:21:19;;;;;;;14.55;10.30;;;;;;;9.12;100.00;100513.66;5075206;28;20220;-78
2022/12/25 01:23:47;;;;;;;20.70;10.32;;;;;;;9.11;100.00;100513.69;5075023;28;20193;-76
2022/12/25 01:26:14;;;;;;;16.58;9.55;;;;;;;9.09;100.00;100513.78;5078669;28;20211;-75
2022/12/25 01:28:41;;;;;;;14.65;9.30;;;;;;;9.07;100.00;100523.72;5073128;28;20223;-75
2022/12/25 01:31:10;;;;;;;18.80;9.55;;;;;;;9.07;100.00;100525.53;5074190;28;20287;-77
2022/12/25 01:33:36;;;;;;;21.33;10.00;;;;;;;9.08;100.00;100535.31;5074978;28;20224;-77
2022/12/25 01:36:04;;;;;;;17.05;10.35;;;;;;;8.99;100.00;100531.16;5074342;28;20208;-77
2022/12/25 01:38:31;;;;;;;14.75;10.07;;;;;;;9.08;100.00;100524.56;5076904;28;20202;-77
2022/12/25 01:40:58;;;;;;;25.55;10.48;;;;;;;9.03;100.00;100516.69;5076350;28;20201;-75
2022/12/25 01:43:27;;;;;;;17.02;10.40;;;;;;;9.02;100.00;100516.72;5075787;28;20217;-78
2022/12/25 01:45:54;;;;;;;18.15;10.57;;;;;;;8.88;100.00;100518.09;5077736;28;20215;-76
2022/12/25 01:48:23;;;;;;;16.35;10.18;;;;;;;8.92;100.00;100522.44;5078503;28;20211;-75
2022/12/25 01:50:54;;;;;;;19.52;10.38;;;;;;;8.94;100.00;100523.28;5077951;28;20197;-76
2022/12/25 01:53:21;;;;;;;17.23;9.65;;;;;;;8.93;100.00;100521.53;5076187;28;20228;-76
2022/12/25 01:55:54;;;;;;;19.05;9.98;;;;;;;8.90;100.00;100508.19;5077219;28;20540;-77
2022/12/25 01:58:21;;;;;;;20.27;11.30;;;;;;;8.83;100.00;100503.97;5074945;28;20184;-76
2022/12/25 02:00:48;;;;;;;21.98;10.65;;;;;;;8.81;100.00;100505.84;5079674;28;20206;-77
2022/12/25 02:03:14;;;;;;;22.50;9.60;;;;;;;8.86;100.00;100498.50;5078840;28;20690;-78
2022/12/25 02:05:41;;;;;;;15.50;10.07;;;;;;;8.88;100.00;100491.25;5080426;28;20204;-75
2022/12/25 02:08:10;;;;;;;16.95;10.13;;;;;;;8.90;100.00;100484.03;5079557;28;20573;-77
2022/12/25 02:10:37;;;;;;;14.55;9.68;;;;;;;8.91;100.00;100504.59;5079370;28;20670;-77
2022/12/25 02:13:06;;;;;;;17.20;9.68;;;;;;;8.88;100.00;100502.00;5081011;28;20224;-77
2022/12/25 02:15:43;;;;;;;18.88;10.15;;;;;;;8.89;100.00;100503.75;5092597;28;20224;-77
2022/12/25 02:18:16;;;;;;;18.85;11.02;;;;;;;8.93;100.00;100497.34;5092272;28;20180;-74
2022/12/25 02:20:52;;;;;;;14.88;10.90;;;;;;;8.95;100.00;100497.28;5090064;28;20196;-77
2022/12/25 02:24:05;;;;;;;14.20;9.43;;;;;;;8.95;100.00;100489.22;5096412;28;20319;-76
2022/12/25 02:27:11;;;;;;;15.27;9.80;;;;;;;8.99;100.00;100480.13;5093797;28;20200;-75
2022/12/25 02:29:49;;;;;;;18.67;10.20;;;;;;;9.07;100.00;100490.59;5072681;28;20211;-77
2022/12/25 02:32:20;;;;;;;20.92;9.93;;;;;;;9.14;100.00;100492.13;5078679;28;20216;-76
2022/12/25 02:34:51;;;;;;;19.92;10.05;;;;;;;9.16;100.00;100495.63;5078074;28;20586;-75
2022/12/25 02:37:27;;;;;;;13.70;9.57;;;;;;;9.14;100.00;100492.13;5077206;28;20209;-77
2022/12/25 02:40:00;;;;;;;16.77;8.30;;;;;;;9.13;100.00;100487.66;5077042;28;20606;-76
2022/12/25 03:07:36;;;;;;;12.55;8.45;;;;;;;9.11;100.00;100470.72;5032967;28;20284;-78
2022/12/25 03:12:57;;;;;;;19.38;8.23;;;;;;;9.06;100.00;100470.03;5034458;28;20319;-76
2022/12/25 03:18:23;;;;;;;17.35;8.48;;;;;;;9.00;100.00;100472.94;4973820;28;20322;-76
2022/12/25 03:29:04;;;;;;;12.98;7.63;;;;;;;9.18;100.00;100499.13;4978337;28;20243;-76
2022/12/25 03:31:49;;;;;;;12.32;7.95;;;;;;;9.23;100.00;100494.44;4978651;28;20234;-77
2022/12/25 04:38:30;;;;;;;15.10;9.05;;;;;;;9.29;100.00;100459.25;4915249;29;20205;-77
2022/12/25 04:40:58;;;;;;;14.88;8.63;;;;;;;9.29;100.00;100453.88;4915004;29;20213;-77
2022/12/25 04:43:25;;;;;;;19.55;9.23;;;;;;;9.34;100.00;100467.16;4991483;28;20223;-76
2022/12/25 04:45:53;;;;;;;15.60;8.88;;;;;;;9.35;100.00;100460.84;5013523;28;20207;-77
2022/12/25 04:48:19;;;;;;;16.73;9.82;;;;;;;9.33;100.00;100458.19;5020723;28;20206;-78
2022/12/25 04:50:46;;;;;;;12.60;7.80;;;;;;;9.27;100.00;100454.88;5033968;28;20206;-77
2022/12/25 04:53:12;;;;;;;12.20;7.63;;;;;;;9.28;100.00;100457.50;5027087;28;20223;-76
2022/12/25 04:55:39;;;;;;;17.35;8.02;;;;;;;9.30;100.00;100466.38;5025798;28;20683;-77
2022/12/25 04:58:07;;;;;;;13.65;7.93;;;;;;;9.24;100.00;100463.06;5024359;28;20269;-76
2022/12/25 05:00:34;;;;;;;18.15;8.70;;;;;;;9.24;100.00;100461.25;5020403;28;20210;-75
2022/12/25 05:03:00;;;;;;;18.88;9.13;;;;;;;9.26;100.00;100456.69;5069123;22;20201;-74
2022/12/25 05:05:27;;;;;;;14.75;8.63;;;;;;;9.20;100.00;100456.91;5069755;28;20233;-74
2022/12/25 05:07:53;;;;;;;18.33;8.98;;;;;;;9.18;100.00;100451.63;5066123;28;20338;-77
2022/12/25 05:10:20;;;;;;;15.82;8.23;;;;;;;9.17;100.00;100451.69;5066653;28;20264;-73
2022/12/25 05:12:47;;;;;;;16.60;8.52;;;;;;;9.20;100.00;100451.53;5065259;28;20292;-75
2022/12/25 05:15:15;;;;;;;10.68;7.75;;;;;;;9.19;100.00;100457.88;5064295;28;20285;-74
2022/12/25 05:17:41;;;;;;;17.10;8.90;;;;;;;9.19;100.00;100464.13;5064050;28;20243;-73
2022/12/25 05:20:08;;;;;;;14.98;8.63;;;;;;;9.17;100.00;100463.28;5064056;28;20634;-74
2022/12/25 05:22:35;;;;;;;16.25;7.70;;;;;;;9.17;100.00;100465.97;5063468;28;20717;-74
2022/12/25 05:25:01;;;;;;;15.00;6.82;;;;;;;9.17;100.00;100465.09;5065086;28;20689;-74
2022/12/25 05:27:28;;;;;;;13.00;7.47;;;;;;;9.16;100.00;100469.63;5064066;28;20203;-76
2022/12/25 05:29:54;;;;;;;15.30;8.45;;;;;;;9.14;100.00;100462.56;5064426;28;20265;-75
2022/12/25 05:32:22;;;;;;;13.18;7.18;;;;;;;9.19;100.00;100455.19;5065984;28;20221;-75
2022/12/25 05:34:49;;;;;;;11.60;7.20;;;;;;;9.13;100.00;100460.78;5067764;28;20225;-74
2022/12/25 05:37:15;;;;;;;13.05;7.20;;;;;;;9.14;100.00;100459.88;5069144;28;20201;-73
2022/12/25 05:39:42;;;;;;;12.48;7.10;;;;;;;9.15;100.00;100457.09;5066671;28;20738;-74
2022/12/25 05:42:09;;;;;;;13.32;7.18;;;;;;;9.18;100.00;100462.38;5067724;28;20746;-75
2022/12/25 05:44:36;;;;;;;13.27;7.30;;;;;;;9.22;100.00;100452.38;5068750;28;20201;-73
2022/12/25 05:47:02;;;;;;;12.50;7.28;;;;;;;9.21;100.00;100450.63;5068605;28;20223;-74
2022/12/25 05:49:30;;;;;;;11.65;6.50;;;;;;;9.23;100.00;100453.25;5066227;28;20212;-74
2022/12/25 05:51:57;;;;;;;12.82;6.38;;;;;;;9.18;100.00;100446.25;5068000;28;20256;-74
2022/12/25 05:54:23;;;;;;;11.02;7.22;;;;;;;9.19;100.00;100447.13;5068866;28;20305;-73
2022/12/25 05:56:50;;;;;;;13.52;7.63;;;;;;;9.19;100.00;100455.19;5068948;28;20220;-73
2022/12/25 05:59:16;;;;;;;10.98;6.72;;;;;;;9.21;100.00;100457.81;5067982;28;20202;-73
2022/12/25 06:01:43;;;;;;;15.93;7.65;;;;;;;9.17;100.00;100449.00;5070350;28;20639;-75
2022/12/25 06:04:10;;;;;;;11.68;7.20;;;;;;;9.14;100.00;100446.44;5068417;28;20249;-75
2022/12/25 06:06:37;;;;;;;12.30;6.78;;;;;;;9.17;100.00;100446.31;5069407;28;20208;-73
2022/12/25 06:09:04;;;;;;;13.30;6.85;;;;;;;9.13;100.00;100452.72;5066804;28;20207;-74
2022/12/25 06:11:31;;;;;;;14.32;7.07;;;;;;;9.05;100.00;100436.03;5068015;28;20212;-74
2022/12/25 06:13:57;;;;;;;15.07;7.95;;;;;;;9.06;100.00;100437.78;5068299;28;20257;-77
2022/12/25 06:16:24;;;;;;;12.70;6.72;;;;;;;9.04;100.00;100436.97;5067415;28;20256;-74
2022/12/25 06:18:51;;;;;;;10.52;6.57;;;;;;;8.99;100.00;100431.75;5067652;28;20211;-74
2022/12/25 06:21:18;;;;;;;12.85;7.00;;;;;;;8.97;100.00;100425.56;5070956;28;20269;-75
2022/12/25 06:23:46;;;;;;;12.80;6.50;;;;;;;8.96;100.00;100419.34;5073822;28;20228;-74
2022/12/25 06:26:15;;;;;;;12.40;6.78;;;;;;;8.96;100.00;100413.97;5073561;28;20231;-74
2022/12/25 06:28:42;;;;;;;8.60;6.00;;;;;;;8.89;100.00;100417.81;5074028;28;20217;-74
2022/12/25 06:31:10;;;;;;;13.18;6.20;;;;;;;8.93;100.00;100414.09;5064424;28;20201;-73
2022/12/25 06:33:37;;;;;;;12.15;5.97;;;;;;;8.95;100.00;100406.84;5062970;28;20245;-76
2022/12/25 06:36:07;;;;;;;10.85;6.32;;;;;;;9.00;100.00;100405.78;5060204;28;20231;-77
2022/12/25 06:38:33;;;;;;;23.38;13.63;;;;;;;8.97;100.00;100410.31;5057822;28;20555;-74
2022/12/25 06:41:05;;;;;;;15.55;7.22;;;;;;;8.97;100.00;100415.69;5058813;28;20201;-77
2022/12/25 06:43:31;;;;;;;11.63;5.90;;;;;;;9.00;100.00;100406.66;5060272;28;20332;-75
2022/12/25 06:46:02;;;;;;;9.27;6.20;;;;;;;9.03;100.00;100408.34;5057521;28;20202;-76
2022/12/25 06:48:29;;;;;;;12.80;7.75;;;;;;;9.07;100.00;100410.88;5057722;28;20205;-75
2022/12/25 06:50:55;;;;;;;11.75;6.45;;;;;;;9.05;100.00;100407.34;5057904;28;20197;-77
2022/12/25 06:53:22;;;;;;;11.73;6.57;;;;;;;9.07;100.00;100416.25;5056976;28;20221;-74
2022/12/25 06:55:48;;;;;;;14.02;6.72;;;;;;;9.08;100.00;100409.91;5057498;28;20225;-74
2022/12/25 06:58:16;;;;;;;12.13;7.30;;;;;;;9.08;100.00;100407.22;5057051;28;20239;-77
2022/12/25 07:00:43;;;;;;;12.60;6.97;;;;;;;9.12;100.00;100408.88;5059053;28;20203;-77
2022/12/25 07:03:13;;;;;;;10.98;5.80;;;;;;;9.10;100.00;100409.88;5059310;28;20256;-76
2022/12/25 07:05:40;;;;;;;11.65;6.70;;;;;;;9.14;100.00;100408.81;5058465;28;20197;-74
2022/12/25 07:08:06;;;;;;;9.98;5.80;;;;;;;9.15;100.00;100424.84;5056443;28;20719;-75
2022/12/25 07:10:33;;;;;;;9.65;6.43;;;;;;;9.08;100.00;100427.84;5058142;28;20198;-75
2022/12/25 07:12:59;;;;;;;11.93;6.75;;;;;;;9.08;100.00;100425.16;5057242;28;20221;-75
2022/12/25 07:15:27;;;;;;;13.20;6.53;;;;;;;9.00;100.00;100421.88;5057328;28;20228;-76
2022/12/25 07:17:54;;;;;;;11.00;7.03;;;;;;;9.09;100.00;100418.84;5057056;28;20208;-75
2022/12/25 07:20:20;;;;;;;17.02;6.40;;;;;;;9.09;100.00;100417.06;5057597;28;20205;-76
2022/12/25 07:22:47;;;;;;;13.30;7.00;;;;;;;9.12;100.00;100421.44;5059443;28;20229;-77
2022/12/25 07:25:13;;;;;;;19.63;12.40;;;;;;;9.12;100.00;100427.66;5058477;28;20204;-75
2022/12/25 07:27:40;;;;;;;14.93;9.10;;;;;;;9.17;100.00;100420.31;5057848;28;20288;-76
2022/12/25 07:30:08;;;;;;;12.40;6.72;;;;;;;9.13;100.00;100415.09;5058103;28;20209;-75
2022/12/25 07:32:36;;;;;;;9.65;5.97;;;;;;;9.20;100.00;100397.81;5058060;28;20707;-75
2022/12/25 07:35:03;;;;;;;11.88;7.20;;;;;;;9.19;100.00;100393.38;5057464;28;20312;-76
2022/12/25 07:37:30;;;;;;;9.38;5.95;;;;;;;9.24;100.00;100401.25;5057065;28;20244;-75
2022/12/25 07:39:56;;;;;;;13.32;6.53;;;;;;;9.24;100.00;100398.56;5056266;28;20296;-76
2022/12/25 07:42:23;;;;;;;15.60;7.80;;;;;;;9.25;100.00;100386.88;5057027;28;20607;-74
2022/12/25 07:44:49;;;;;;;9.40;7.25;;;;;;;9.26;100.00;100380.56;5058972;28;20280;-76
2022/12/25 07:47:16;;;;;;;8.85;6.35;;;;;;;9.31;100.00;100382.13;5063485;28;20210;-76
2022/12/25 07:49:44;;;;;;;12.07;6.35;;;;;;;9.29;100.00;100394.75;5057835;28;20263;-73
2022/12/25 07:52:10;;;;;;;10.10;7.05;;;;;;;9.36;100.00;100390.91;5059413;28;20228;-77
2022/12/25 07:54:37;;;;;;;10.20;6.53;;;;;;;9.39;100.00;100397.97;5060497;28;20225;-76
2022/12/25 07:57:04;;;;;;;11.57;6.15;;;;;;;9.42;100.00;100391.56;5058593;28;20209;-75
2022/12/25 07:59:30;;;;;;;7.70;6.25;;;;;;;9.43;100.00;100391.53;5061238;28;20204;-75
2022/12/25 08:01:57;;;;;;;10.75;7.47;;;;;;;9.48;100.00;100385.97;5064135;28;20225;-77
2022/12/25 08:04:23;;;;;;;11.85;8.00;;;;;;;9.51;100.00;100394.75;5066283;28;20296;-76
2022/12/25 08:06:51;;;;;;;11.82;7.50;;;;;;;9.56;100.00;100399.94;5065754;28;20201;-74
2022/12/25 08:09:17;;;;;;;9.30;6.90;;;;;;;9.62;100.00;100404.22;5063496;28;20700;-75
2022/12/25 08:11:46;;;;;;;11.10;7.00;;;;;;;9.72;100.00;100406.47;5059563;28;20205;-77
2022/12/25 08:14:13;;;;;;;12.70;7.00;;;;;;;9.85;100.00;100387.09;5061237;28;20208;-75
2022/12/25 08:16:41;;;;;;;8.13;6.25;;;;;;;9.97;100.00;100376.69;5060352;28;20232;-74
2022/12/25 08:19:07;;;;;;;10.85;6.15;;;;;;;10.05;100.00;100373.66;5062769;28;20549;-75
2022/12/25 08:21:34;;;;;;;8.20;6.22;;;;;;;10.07;100.00;100363.72;5062661;28;20208;-77
2022/12/25 08:24:02;;;;;;;10.15;6.28;;;;;;;10.03;100.00;100351.31;5062769;28;20201;-76
2022/12/25 08:26:29;;;;;;;11.93;6.82;;;;;;;10.14;100.00;100335.59;5062463;28;20193;-75
2022/12/25 08:28:55;;;;;;;14.45;6.05;;;;;;;10.21;100.00;100330.81;5061508;28;20201;-77
2022/12/25 08:31:23;;;;;;;12.63;6.80;;;;;;;10.27;100.00;100337.75;5062089;28;20204;-76
2022/12/25 08:33:53;;;;;;;8.02;5.45;;;;;;;10.28;100.00;100352.94;5062261;28;20257;-76
2022/12/25 08:36:20;;;;;;;9.18;5.90;;;;;;;10.33;100.00;100367.94;5062181;28;20217;-75
2022/12/25 08:38:47;;;;;;;9.63;5.63;;;;;;;10.28;100.00;100371.78;5059562;28;20215;-76
2022/12/25 08:41:16;;;;;;;9.50;5.25;;;;;;;10.25;100.00;100388.94;5061171;28;20205;-76
2022/12/25 08:43:43;;;;;;;7.13;4.40;;;;;;;10.14;100.00;100370.56;5073607;28;20220;-76
2022/12/25 08:46:10;;;;;;;10.18;5.28;;;;;;;10.20;100.00;100359.53;5075105;28;20193;-75
2022/12/25 08:48:37;;;;;;;6.93;5.25;;;;;;;10.20;100.00;100346.09;5070555;28;20212;-76
2022/12/25 08:51:05;;;;;;;8.80;5.20;;;;;;;10.24;100.00;100349.50;5061042;28;20299;-75
2022/12/25 08:53:31;;;;;;;11.90;7.22;;;;;;;10.21;100.00;100339.75;5060443;28;20283;-77
2022/12/25 08:55:58;;;;;;;11.35;7.30;;;;;;;10.21;100.00;100337.06;5061130;28;20229;-76
2022/12/25 08:58:27;;;;;;;10.25;6.47;;;;;;;10.22;100.00;100344.19;5059356;28;20232;-75
2022/12/25 09:00:54;;;;;;;10.68;5.97;;;;;;;10.21;100.00;100363.09;5059440;28;20293;-75
2022/12/25 09:03:20;;;;;;;6.80;4.18;;;;;;;10.15;100.00;100366.94;5059877;28;20229;-74
2022/12/25 09:05:47;;;;;;;15.75;7.35;;;;;;;10.13;100.00;100370.63;5060367;28;20220;-77
2022/12/25 09:08:13;;;;;;;7.10;5.40;;;;;;;10.12;100.00;100382.34;5059901;28;20672;-75
2022/12/25 09:10:41;;;;;;;7.65;4.95;;;;;;;10.14;100.00;100394.78;5060510;28;20232;-75
2022/12/25 09:13:07;;;;;;;7.43;5.07;;;;;;;10.15;100.00;100385.78;5060096;28;20231;-78
2022/12/25 09:15:37;;;;;;;8.38;5.15;;;;;;;10.17;100.00;100396.47;5061184;28;20586;-76
2022/12/25 09:18:04;;;;;;;9.27;4.70;;;;;;;10.17;100.00;100393.78;5060863;28;20204;-75
2022/12/25 09:20:30;;;;;;;10.98;5.50;;;;;;;10.17;100.00;100391.09;5060661;28;20235;-75
2022/12/25 09:22:57;;;;;;;13.32;7.70;;;;;;;10.19;100.00;100392.75;5059727;28;20286;-75
2022/12/25 09:25:24;;;;;;;15.40;11.25;;;;;;;10.21;100.00;100387.31;5059326;28;20212;-75
2022/12/25 09:27:50;;;;;;;25.58;16.63;;;;;;;10.25;100.00;100380.88;5058238;28;20205;-76
2022/12/25 09:30:17;;;;;;;29.33;20.02;;;;;;;10.30;100.00;100383.38;5059732;28;20208;-75
2022/12/25 09:32:45;;;;;;;30.20;21.85;;;;;;;10.33;100.00;100381.41;5059510;28;20232;-75
2022/12/25 09:35:12;;;;;;;34.85;21.83;;;;;;;10.38;100.00;100382.09;5060321;28;20611;-75
2022/12/25 09:37:39;;;;;;;31.85;20.17;;;;;;;10.35;100.00;100374.16;5060718;28;20194;-75
2022/12/25 09:40:07;;;;;;;21.30;15.82;;;;;;;10.37;100.00;100371.41;5059213;28;20197;-75
2022/12/25 09:42:34;;;;;;;22.40;14.10;;;;;;;10.35;100.00;100371.44;5061407;28;20221;-78
2022/12/25 09:45:04;;;;;;;19.92;12.63;;;;;;;10.36;100.00;100377.72;5062506;28;20201;-76
2022/12/25 09:47:33;;;;;;;15.95;10.25;;;;;;;10.40;100.00;100376.63;5061564;28;20209;-76
2022/12/25 09:50:07;;;;;;;14.77;10.18;;;;;;;10.40;100.00;100364.06;5062968;28;20292;-76
2022/12/25 09:52:42;;;;;;;15.45;9.60;;;;;;;10.41;100.00;100359.56;5059501;28;20231;-75
2022/12/25 09:55:13;;;;;;;14.35;7.60;;;;;;;10.42;100.00;100363.97;5063826;28;20205;-75
2022/12/25 09:57:40;;;;;;;13.80;6.45;;;;;;;10.41;100.00;100360.41;5065216;28;20246;-76
2022/12/25 10:00:14;;;;;;;8.30;6.05;;;;;;;10.49;100.00;100367.25;5067981;28;20664;-75
2022/12/25 10:03:01;;;;;;;10.80;6.15;;;;;;;10.54;100.00;100349.97;5067592;28;20233;-74
2022/12/25 10:05:52;;;;;;;7.45;5.45;;;;;;;10.58;100.00;100343.50;5062899;28;20220;-75
2022/12/25 10:08:32;;;;;;;11.18;6.15;;;;;;;10.54;100.00;100328.44;5064038;28;20229;-74
2022/12/25 10:11:07;;;;;;;9.40;6.72;;;;;;;10.67;100.00;100323.31;5065873;28;20265;-74
2022/12/25 10:13:51;;;;;;;7.13;5.57;;;;;;;10.85;100.00;100306.31;5065795;28;20220;-76
2022/12/25 10:16:25;;;;;;;8.52;5.88;;;;;;;11.15;100.00;100294.13;5066596;28;20225;-74
2022/12/25 10:19:23;;;;;;;7.40;5.03;;;;;;;11.41;100.00;100288.28;5062765;28;20216;-74
2022/12/25 10:21:55;;;;;;;7.68;4.60;;;;;;;11.65;100.00;100282.59;5005098;28;20262;-74
2022/12/25 10:24:30;;;;;;;10.10;5.55;;;;;;;11.95;100.00;100265.78;5007028;28;20282;-76
2022/12/25 10:26:57;;;;;;;6.50;4.40;;;;;;;12.01;100.00;100271.72;5005088;28;20223;-75
2022/12/25 10:29:23;;;;;;;7.70;4.78;;;;;;;12.12;100.00;100281.06;5000903;28;20234;-75
2022/12/25 10:31:55;;;;;;;6.75;4.85;;;;;;;12.35;100.00;100301.44;5004002;28;20207;-75
2022/12/25 10:34:23;;;;;;;9.07;4.50;;;;;;;12.37;100.00;100305.78;5002766;28;20184;-75
2022/12/25 10:36:51;;;;;;;5.18;4.10;;;;;;;12.23;100.00;100303.84;4987724;28;20227;-75
2022/12/25 10:39:19;;;;;;;8.07;4.45;;;;;;;12.10;100.00;100306.31;5003521;28;20298;-75
2022/12/25 10:42:04;;;;;;;7.18;4.55;;;;;;;11.97;100.00;100301.66;5001202;28;20225;-74
2022/12/25 10:44:32;;;;;;;8.60;4.30;;;;;;;11.96;100.00;100298.09;4999170;28;20361;-74
2022/12/25 10:47:00;;;;;;;5.85;4.38;;;;;;;12.10;100.00;100297.34;4998997;28;20580;-74
2022/12/25 10:49:30;;;;;;;6.22;3.90;;;;;;;12.22;100.00;100285.00;5000154;28;20230;-75
2022/12/25 10:51:58;;;;;;;5.65;4.55;;;;;;;12.20;100.00;100277.00;5005773;28;20237;-75
2022/12/25 10:54:27;;;;;;;10.50;4.90;;;;;;;12.06;100.00;100283.13;5007549;28;20203;-73
2022/12/25 10:56:56;;;;;;;5.35;4.22;;;;;;;11.89;100.00;100283.16;5008148;28;20740;-74
2022/12/25 10:59:23;;;;;;;7.40;5.03;;;;;;;11.87;100.00;100269.75;5051578;28;20202;-73
2022/12/25 11:01:50;;;;;;;5.55;4.50;;;;;;;11.96;100.00;100267.50;5066344;28;20205;-75
2022/12/25 11:04:21;;;;;;;6.18;4.78;;;;;;;12.10;100.00;100265.81;5079421;22;20236;-76
2022/12/25 11:07:05;;;;;;;5.90;4.55;;;;;;;12.48;100.00;100251.16;5042356;28;20220;-77
2022/12/25 11:09:32;;;;;;;7.25;5.00;;;;;;;12.58;100.00;100241.59;5059039;28;20200;-76
2022/12/25 11:11:59;;;;;;;6.32;4.35;;;;;;;12.58;100.00;100259.66;5061270;28;20211;-75
2022/12/25 11:14:27;;;;;;;6.15;4.15;;;;;;;12.61;100.00;100260.31;5062121;28;20605;-77
2022/12/25 11:16:54;;;;;;;5.32;4.50;;;;;;;12.43;100.00;100255.97;5060411;28;20228;-76
2022/12/25 11:19:27;;;;;;;7.75;4.80;;;;;;;12.42;100.00;100249.69;5059532;28;20692;-77
2022/12/25 11:21:56;;;;;;;8.07;4.85;;;;;;;12.54;100.00;100258.94;5060514;28;20236;-76
2022/12/25 11:24:26;;;;;;;8.63;4.90;;;;;;;12.41;100.00;100250.63;5060040;28;20650;-75
2022/12/25 11:26:54;;;;;;;6.13;4.45;;;;;;;12.15;100.00;100253.91;5059838;28;20245;-77
2022/12/25 11:29:26;;;;;;;7.18;4.40;;;;;;;12.04;100.00;100255.34;5059086;28;20205;-77
2022/12/25 11:31:56;;;;;;;6.88;4.75;;;;;;;12.04;100.00;100267.97;5060161;28;20580;-76
2022/12/25 11:34:30;;;;;;;6.68;3.92;;;;;;;11.84;100.00;100263.59;5058975;28;20613;-76
2022/12/25 11:36:59;;;;;;;9.07;4.72;;;;;;;11.50;100.00;100264.50;5058852;28;20221;-76
2022/12/25 11:39:29;;;;;;;8.30;4.45;;;;;;;11.44;100.00;100252.19;5057457;28;20201;-76
2022/12/25 11:42:01;;;;;;;9.00;5.30;;;;;;;11.58;100.00;100251.50;5065416;28;20272;-75
2022/12/25 11:44:38;;;;;;;7.95;4.50;;;;;;;11.52;100.00;100247.28;5063727;28;20225;-77
2022/12/25 11:47:11;;;;;;;8.52;4.97;;;;;;;11.59;100.00;100243.31;5059096;28;20595;-76
2022/12/25 11:49:50;;;;;;;5.82;4.50;;;;;;;11.54;100.00;100239.13;5059017;28;20636;-74
2022/12/25 11:52:19;;;;;;;7.28;4.50;;;;;;;11.58;100.00;100236.19;5060618;28;20288;-74
2022/12/25 11:54:54;;;;;;;8.68;4.65;;;;;;;11.58;100.00;100235.31;5058125;28;20200;-75
2022/12/25 11:57:23;;;;;;;6.50;5.10;;;;;;;11.70;100.00;100234.66;5055898;28;20220;-76
2022/12/25 11:59:56;;;;;;;8.38;4.85;;;;;;;11.75;100.00;100216.41;5055366;28;20600;-76
2022/12/25 12:02:30;;;;;;;9.02;5.40;;;;;;;11.76;100.00;100212.75;5056265;28;20209;-76
2022/12/25 12:05:11;;;;;;;6.25;4.22;;;;;;;11.88;100.00;100200.47;5056119;28;20215;-77
2022/12/25 12:07:50;;;;;;;8.10;5.10;;;;;;;12.12;100.00;100181.16;5056233;28;20578;-77
2022/12/25 12:10:25;;;;;;;8.18;4.60;;;;;;;12.47;100.00;100169.28;5056003;28;20189;-77
2022/12/25 12:12:57;;;;;;;4.88;3.90;;;;;;;12.85;100.00;100159.94;5055826;28;20221;-76
2022/12/25 12:15:28;;;;;;;6.78;4.13;;;;;;;13.13;100.00;100149.19;5056258;28;20192;-76
2022/12/25 12:17:55;;;;;;;6.55;4.47;;;;;;;13.21;100.00;100134.38;5055269;28;20713;-76
2022/12/25 12:20:31;;;;;;;8.25;4.53;;;;;;;13.29;100.00;100135.66;5055983;28;20208;-75
2022/12/25 12:23:00;;;;;;;6.78;4.15;;;;;;;13.28;100.00;100146.59;5055897;28;20227;-76
2022/12/25 12:25:29;;;;;;;7.82;3.92;;;;;;;13.10;100.00;100149.38;5057304;28;20207;-75
2022/12/25 12:27:58;;;;;;;6.15;3.88;;;;;;;13.05;100.00;100156.03;5055710;28;20224;-75
2022/12/25 12:30:27;;;;;;;8.40;4.40;;;;;;;12.69;100.00;100159.94;5055866;28;20283;-75
2022/12/25 12:32:57;;;;;;;8.27;4.78;;;;;;;12.65;100.00;100153.84;5056237;28;20229;-74
2022/12/25 12:35:27;;;;;;;6.13;4.13;;;;;;;12.65;100.00;100163.78;5056839;28;20201;-75
2022/12/25 12:37:57;;;;;;;8.65;4.47;;;;;;;12.90;100.00;100157.81;5058921;28;20248;-75
2022/12/25 12:40:30;;;;;;;7.68;4.90;;;;;;;12.87;100.00;100147.19;5061304;28;20197;-75
2022/12/25 12:42:56;;;;;;;10.50;6.25;;;;;;;12.87;100.00;100136.38;5055313;28;20247;-77
2022/12/25 12:45:28;;;;;;;7.10;4.88;;;;;;;13.18;100.00;100130.00;5055152;28;20687;-75
2022/12/25 12:47:55;;;;;;;5.85;4.35;;;;;;;13.46;100.00;100134.63;5054839;28;20182;-74
2022/12/25 12:50:31;;;;;;;7.25;4.65;;;;;;;13.47;100.00;100135.50;5055482;28;20207;-76
2022/12/25 12:52:59;;;;;;;6.72;4.75;;;;;;;13.68;100.00;100146.81;5056037;28;20252;-76
2022/12/25 12:55:31;;;;;;;11.70;5.10;;;;;;;13.47;100.00;100146.31;5057566;28;20203;-75
2022/12/25 12:57:59;;;;;;;5.82;4.65;;;;;;;13.33;100.00;100139.06;5055374;28;20225;-75
2022/12/25 13:00:33;;;;;;;10.10;6.00;;;;;;;13.42;100.00;100145.72;5057769;28;20639;-75
2022/12/25 13:03:27;;;;;;;8.02;5.18;;;;;;;14.28;100.00;100124.94;5057258;28;20237;-76
2022/12/25 13:05:57;;;;;;;6.63;4.00;;;;;;;14.95;100.00;100129.59;5057960;28;20212;-75
2022/12/25 13:08:40;;;;;;;5.90;3.90;;;;;;;15.62;100.00;100127.63;5057049;28;20493;-76
2022/12/25 13:11:15;;;;;;;7.07;4.35;;;;;;;16.76;100.00;100113.91;5056750;28;20193;-76